createdAt,value
2022-08-25T00:00:44.598Z,4.80
2022-08-25T00:05:48.140Z,5.40
2022-08-25T00:10:53.988Z,4.70
2022-08-25T00:16:06.597Z,4.50
2022-08-25T00:21:09.526Z,5.20
2022-08-25T00:26:13.868Z,5.20
2022-08-25T00:31:20.383Z,5.80
2022-08-25T00:36:23.254Z,4.80
2022-08-25T00:41:26.545Z,4.50
2022-08-25T00:46:36.012Z,4.20
2022-08-25T00:51:38.831Z,5.30
2022-08-25T00:56:42.606Z,5.00
2022-08-25T01:01:45.395Z,4.60
2022-08-25T01:06:49.237Z,4.70
2022-08-25T01:11:52.890Z,5.10
2022-08-25T01:16:55.688Z,4.80
2022-08-25T01:21:58.451Z,4.50
2022-08-25T01:27:01.465Z,4.50
2022-08-25T01:32:09.005Z,5.20
2022-08-25T01:37:14.032Z,4.40
2022-08-25T01:42:25.242Z,4.40
2022-08-25T01:47:28.166Z,4.80
2022-08-25T01:52:44.862Z,4.30
2022-08-25T01:57:47.727Z,4.20
2022-08-25T02:02:54.011Z,4.40
2022-08-25T02:07:57.045Z,3.80
2022-08-25T02:13:00.462Z,4.40
2022-08-25T02:18:03.185Z,4.00
2022-08-25T02:23:06.285Z,4.70
2022-08-25T02:28:10.507Z,4.80
2022-08-25T02:33:13.180Z,4.60
2022-08-25T02:38:15.891Z,4.40
2022-08-25T02:43:18.556Z,4.40
2022-08-25T02:48:21.997Z,6.40
2022-08-25T02:53:24.685Z,5.70
2022-08-25T02:58:28.234Z,5.00
2022-08-25T03:03:31.142Z,4.20
2022-08-25T03:08:33.873Z,4.30
2022-08-25T03:13:37.298Z,4.30
2022-08-25T03:18:42.126Z,4.90
2022-08-25T03:23:45.858Z,5.30
2022-08-25T03:28:48.559Z,4.60
2022-08-25T03:33:51.258Z,4.80
2022-08-25T03:38:55.112Z,5.10
2022-08-25T03:43:58.356Z,4.50
2022-08-25T03:49:05.719Z,5.10
2022-08-25T03:54:10.560Z,5.80
2022-08-25T03:59:13.918Z,5.60
2022-08-25T04:04:16.993Z,5.50
2022-08-25T04:09:19.937Z,4.80
2022-08-25T04:14:23.866Z,5.40
2022-08-25T04:19:27.279Z,5.60
2022-08-25T04:24:30.253Z,5.20
2022-08-25T04:29:32.941Z,5.10
2022-08-25T04:34:35.913Z,5.30
2022-08-25T04:39:38.601Z,5.90
2022-08-25T04:44:42.064Z,5.60
2022-08-25T04:49:44.761Z,4.70
2022-08-25T04:54:48.097Z,5.30
2022-08-25T04:59:50.979Z,5.20
2022-08-25T05:04:55.569Z,5.60
2022-08-25T05:09:58.274Z,5.50
2022-08-25T05:15:20.991Z,6.10
2022-08-25T05:20:24.862Z,6.00
2022-08-25T05:25:27.565Z,8.40
2022-08-25T05:30:30.542Z,13.30
2022-08-25T05:35:33.482Z,11.80
2022-08-25T05:40:36.270Z,7.80
2022-08-25T05:45:39.463Z,8.80
2022-08-25T05:50:43.123Z,9.90
2022-08-25T05:55:45.971Z,10.30
2022-08-25T06:00:49.346Z,7.10
2022-08-25T06:05:52.131Z,6.30
2022-08-25T06:10:54.798Z,6.00
2022-08-25T06:16:02.145Z,4.80
2022-08-25T06:21:12.887Z,5.40
2022-08-25T06:26:20.756Z,6.30
2022-08-25T06:31:24.708Z,5.20
2022-08-25T06:36:27.991Z,5.40
2022-08-25T06:41:36.959Z,5.70
2022-08-25T06:46:40.039Z,6.30
2022-08-25T06:51:43.006Z,5.60
2022-08-25T06:56:45.819Z,4.90
2022-08-25T07:01:49.671Z,4.50
2022-08-25T07:06:53.070Z,5.70
2022-08-25T07:11:55.916Z,4.40
2022-08-25T07:16:58.666Z,4.80
2022-08-25T07:22:02.310Z,4.30
2022-08-25T07:27:05.538Z,4.50
2022-08-25T07:32:08.261Z,4.50
2022-08-25T07:37:23.774Z,4.70
2022-08-25T07:42:37.932Z,4.40
2022-08-25T07:47:40.698Z,4.30
2022-08-25T07:52:43.379Z,4.70
2022-08-25T07:57:48.947Z,4.80
2022-08-25T08:02:57.836Z,4.20
2022-08-25T08:08:01.014Z,4.50
2022-08-25T08:13:07.013Z,4.60
2022-08-25T08:18:11.009Z,5.50
2022-08-25T08:23:15.862Z,5.40
2022-08-25T08:28:18.613Z,4.40
2022-08-25T08:33:22.854Z,5.40
2022-08-25T08:38:27.176Z,6.00
2022-08-25T08:43:33.437Z,4.30
2022-08-25T08:49:05.763Z,5.30
2022-08-25T08:54:16.570Z,6.50
2022-08-25T08:59:30.195Z,5.90
2022-08-25T09:04:47.057Z,5.10
2022-08-25T09:09:52.263Z,4.90
2022-08-25T09:15:03.115Z,5.20
2022-08-25T09:20:58.054Z,6.30
2022-08-25T09:26:30.236Z,7.00
2022-08-25T09:31:38.812Z,5.50
2022-08-25T09:36:41.697Z,5.50
2022-08-25T09:41:51.548Z,5.60
2022-08-25T09:47:02.130Z,5.30
2022-08-25T09:52:32.890Z,5.40
2022-08-25T09:57:52.731Z,5.80
2022-08-25T10:03:22.471Z,5.70
2022-08-25T10:08:39.671Z,5.50
2022-08-25T10:19:06.685Z,5.80
2022-08-25T10:24:12.039Z,5.60
2022-08-25T10:29:44.157Z,5.80
2022-08-25T10:34:51.623Z,6.20
2022-08-25T10:40:27.869Z,6.20
2022-08-25T10:45:43.692Z,5.90
2022-08-25T10:50:55.387Z,5.70
2022-08-25T10:56:12.573Z,5.80
2022-08-25T11:01:43.751Z,6.30
2022-08-25T11:06:50.339Z,5.70
2022-08-25T11:12:01.525Z,6.70
2022-08-25T11:17:18.110Z,7.00
2022-08-25T11:22:27.618Z,6.50
2022-08-25T11:27:45.916Z,7.50
2022-08-25T11:32:51.830Z,7.10
2022-08-25T11:38:19.245Z,6.00
2022-08-25T11:43:53.270Z,6.30
2022-08-25T11:49:37.494Z,6.40
2022-08-25T11:54:48.622Z,6.50
2022-08-25T12:00:00.526Z,6.70
2022-08-25T12:05:15.575Z,7.00
2022-08-25T12:10:22.727Z,5.90
2022-08-25T12:15:31.447Z,5.60
2022-08-25T12:20:57.128Z,6.60
2022-08-25T12:26:11.096Z,6.10
2022-08-25T12:31:31.688Z,6.90
2022-08-25T12:36:35.749Z,7.00
2022-08-25T12:41:54.329Z,6.70
2022-08-25T12:47:08.009Z,6.90
2022-08-25T12:52:17.739Z,6.50
2022-08-25T12:57:25.047Z,6.20
2022-08-25T13:03:01.539Z,7.00
2022-08-25T13:08:22.033Z,6.50
2022-08-25T13:13:45.831Z,6.90
2022-08-25T13:18:51.643Z,7.30
2022-08-25T13:24:01.266Z,7.00
2022-08-25T13:29:13.462Z,6.50
2022-08-25T13:34:30.439Z,6.60
2022-08-25T13:39:55.317Z,7.00
2022-08-25T13:44:58.874Z,6.60
2022-08-25T13:50:35.820Z,7.30
2022-08-25T13:55:52.331Z,7.50
2022-08-25T14:01:22.829Z,7.30
2022-08-25T14:06:31.143Z,6.50
2022-08-25T14:11:50.059Z,7.00
2022-08-25T14:17:12.042Z,7.10
2022-08-25T14:22:25.718Z,6.60
2022-08-25T14:27:28.513Z,7.20
2022-08-25T14:32:31.207Z,6.40
2022-08-25T14:37:33.927Z,7.00
2022-08-25T14:42:37.654Z,6.50
2022-08-25T14:47:40.620Z,6.50
2022-08-25T14:52:44.370Z,6.30
2022-08-25T14:57:47.055Z,6.40
2022-08-25T15:02:51.654Z,6.90
2022-08-25T15:08:14.926Z,6.60
2022-08-25T15:13:17.937Z,6.30
2022-08-25T15:18:22.553Z,5.80
2022-08-25T15:23:25.851Z,7.20
2022-08-25T15:28:29.494Z,6.80
2022-08-25T15:33:33.600Z,6.70
2022-08-25T15:38:36.287Z,5.80
2022-08-25T15:43:39.597Z,6.00
2022-08-25T15:48:42.478Z,5.50
2022-08-25T15:53:46.450Z,5.50
2022-08-25T15:58:50.314Z,6.90
2022-08-25T16:08:56.917Z,6.30
2022-08-25T16:13:59.664Z,6.00
2022-08-25T16:19:02.477Z,6.20
2022-08-25T16:24:07.939Z,6.50
2022-08-25T16:29:12.553Z,5.80
2022-08-25T16:34:15.266Z,6.20
2022-08-25T16:39:19.280Z,6.00
2022-08-25T16:44:24.543Z,6.70
2022-08-25T16:49:28.673Z,6.00
2022-08-25T16:54:50.146Z,6.30
2022-08-25T16:59:53.751Z,6.80
2022-08-25T17:04:56.450Z,6.40
2022-08-25T17:10:05.277Z,5.70
2022-08-25T17:15:08.804Z,6.20
2022-08-25T17:20:11.674Z,7.10
2022-08-25T17:25:14.762Z,6.70
2022-08-25T17:30:17.972Z,6.80
2022-08-25T17:35:20.872Z,7.10
2022-08-25T17:40:24.954Z,7.10
2022-08-25T17:45:30.099Z,6.40
2022-08-25T17:50:36.208Z,6.00
2022-08-25T17:55:42.322Z,6.80
2022-08-25T18:00:47.134Z,6.80
2022-08-25T18:05:50.431Z,6.10
2022-08-25T18:10:53.301Z,5.80
2022-08-25T18:15:56.013Z,6.10
2022-08-25T18:20:58.738Z,6.30
2022-08-25T18:26:02.667Z,6.30
2022-08-25T18:31:06.028Z,6.20
2022-08-25T18:36:10.156Z,6.20
2022-08-25T18:41:13.610Z,5.30
2022-08-25T18:46:16.949Z,6.10
2022-08-25T18:51:22.892Z,6.40
2022-08-25T18:56:26.843Z,6.80
2022-08-25T19:01:30.107Z,6.70
2022-08-25T19:06:33.271Z,6.40
2022-08-25T19:11:36.040Z,7.30
2022-08-25T19:16:41.390Z,6.90
2022-08-25T19:21:44.901Z,7.50
2022-08-25T19:26:54.520Z,7.20
2022-08-25T19:31:58.544Z,6.30
2022-08-25T19:37:05.276Z,7.00
2022-08-25T19:42:31.684Z,7.30
2022-08-25T19:47:32.121Z,7.50
2022-08-25T19:52:35.236Z,5.90
2022-08-25T19:57:42.676Z,6.40
2022-08-25T20:02:47.387Z,6.80
2022-08-25T20:07:53.226Z,6.60
2022-08-25T20:12:56.504Z,7.20
2022-08-25T20:18:01.054Z,8.10
2022-08-25T20:23:25.105Z,7.60
2022-08-25T20:28:30.625Z,7.10
2022-08-25T20:33:33.346Z,7.50
2022-08-25T20:38:36.489Z,7.50
2022-08-25T20:43:41.313Z,7.50
2022-08-25T20:48:44.554Z,7.80
2022-08-25T20:53:47.613Z,7.40
2022-08-25T20:58:50.537Z,7.70
2022-08-25T21:03:53.447Z,9.00
2022-08-25T21:08:56.214Z,7.80
2022-08-25T21:13:59.455Z,6.60
2022-08-25T21:19:02.359Z,8.30
2022-08-25T21:24:09.149Z,6.80
2022-08-25T21:29:15.345Z,7.10
2022-08-25T21:34:20.365Z,6.20
2022-08-25T21:39:26.288Z,6.60
2022-08-25T21:49:37.532Z,7.20
2022-08-25T21:54:40.606Z,6.60
2022-08-25T21:59:43.667Z,7.70
2022-08-25T22:04:48.744Z,7.50
2022-08-25T22:09:51.904Z,7.40
2022-08-25T22:14:55.424Z,7.30
2022-08-25T22:19:58.969Z,7.50
2022-08-25T22:25:01.789Z,7.40
2022-08-25T22:30:05.471Z,7.40
2022-08-25T22:35:09.463Z,7.70
2022-08-25T22:40:13.905Z,7.60
2022-08-25T22:45:17.355Z,7.80
2022-08-25T22:50:20.120Z,8.00
2022-08-25T22:55:23.846Z,7.80
2022-08-25T23:00:26.982Z,7.80
2022-08-25T23:05:29.725Z,7.70
2022-08-25T23:10:32.945Z,8.70
2022-08-25T23:15:35.997Z,8.30
2022-08-25T23:20:58.721Z,8.30
2022-08-25T23:26:05.262Z,7.60
2022-08-25T23:31:11.485Z,6.90
2022-08-25T23:36:15.561Z,6.80
2022-08-25T23:41:21.960Z,6.80
2022-08-25T23:46:26.725Z,6.00
2022-08-25T23:51:33.586Z,6.00
2022-08-25T23:56:37.215Z,5.40
